Time;durP1;ratioP1;P1;durP2;ratioP2;P2;SDS_P1;SDS_P2;PMS_P1;PMS_P2;Temp;Humidity;BMP_temperature;BMP_pressure;BME280_temperature;BME280_humidity;BME280_pressure;Samples;Min_cycle;Max_cycle;Signal;HPM_P1;HPM_P2
2022/04/26 03:37:40;;;;;;;3.65;3.13;;;7.30;35.50;;;;;;4989214;28;33991;-80
2022/04/26 03:40:07;;;;;;;5.38;3.38;;;7.30;35.50;;;;;;4989886;28;34351;-80
2022/04/26 03:42:34;;;;;;;3.85;3.30;;;7.30;35.60;;;;;;4957674;28;34416;-80
2022/04/26 03:45:01;;;;;;;4.60;3.25;;;7.30;35.60;;;;;;4971739;28;36496;-80
2022/04/26 03:47:27;;;;;;;3.88;3.15;;;7.40;35.60;;;;;;4988391;28;34031;-80
2022/04/26 03:49:53;;;;;;;3.30;2.88;;;7.40;36.10;;;;;;4989248;28;34281;-80
2022/04/26 03:52:21;;;;;;;3.97;3.03;;;7.40;36.00;;;;;;4957480;28;34269;-80
2022/04/26 03:54:46;;;;;;;3.75;3.00;;;7.40;36.30;;;;;;4990060;28;34337;-80
2022/04/26 03:57:12;;;;;;;4.38;3.35;;;7.40;36.20;;;;;;4988443;28;34234;-80
2022/04/26 03:59:38;;;;;;;3.92;3.40;;;7.40;36.20;;;;;;4988165;28;34287;-79
2022/04/26 04:02:05;;;;;;;4.07;3.45;;;7.40;36.50;;;;;;4970244;28;34098;-79
2022/04/26 04:04:30;;;;;;;4.72;3.33;;;7.40;36.60;;;;;;4970965;28;35809;-79
2022/04/26 04:06:56;;;;;;;4.78;3.58;;;7.50;36.40;;;;;;4970597;28;34175;-79
2022/04/26 04:09:22;;;;;;;3.97;3.25;;;7.50;36.40;;;;;;4970118;28;34423;-79
2022/04/26 04:11:49;;;;;;;3.83;3.08;;;7.50;36.40;;;;;;4971180;28;34000;-79
2022/04/26 04:14:15;;;;;;;5.25;4.05;;;7.60;36.30;;;;;;4970220;28;35971;-79
2022/04/26 04:16:40;;;;;;;3.85;3.28;;;7.60;36.50;;;;;;4985715;28;34633;-80
2022/04/26 04:21:50;;;;;;;3.72;3.28;;;7.60;36.80;;;;;;4986833;28;34695;-79
2022/04/26 04:24:16;;;;;;;7.15;4.15;;;7.60;37.20;;;;;;4969105;28;35603;-79
2022/04/26 04:26:42;;;;;;;4.35;3.22;;;7.60;37.30;;;;;;4986527;28;34382;-80
2022/04/26 04:29:08;;;;;;;4.82;3.58;;;7.60;37.20;;;;;;4987641;28;34142;-80
2022/04/26 04:31:34;;;;;;;4.00;3.35;;;7.60;37.30;;;;;;4970392;28;34327;-79
2022/04/26 04:34:02;;;;;;;3.60;3.08;;;7.70;37.40;;;;;;4968381;28;35514;-78
2022/04/26 04:36:28;;;;;;;3.63;3.05;;;7.70;37.50;;;;;;4984167;28;34064;-76
2022/04/26 04:38:55;;;;;;;4.22;3.70;;;7.70;37.40;;;;;;4967720;28;34108;-77
2022/04/26 04:41:21;;;;;;;3.75;3.17;;;7.70;37.50;;;;;;4984663;28;34279;-77
2022/04/26 04:43:47;;;;;;;4.95;3.50;;;7.80;37.40;;;;;;4950733;28;36100;-77
2022/04/26 04:46:13;;;;;;;5.60;3.45;;;7.80;37.40;;;;;;4984894;28;34170;-77
2022/04/26 04:48:39;;;;;;;4.18;3.38;;;7.80;37.40;;;;;;4985119;28;34206;-77
2022/04/26 04:51:05;;;;;;;4.07;3.67;;;7.90;37.40;;;;;;4964176;28;34225;-77
2022/04/26 04:53:31;;;;;;;4.40;3.38;;;7.90;37.50;;;;;;4947950;28;34238;-77
2022/04/26 04:55:57;;;;;;;4.72;3.47;;;7.90;37.60;;;;;;4964810;28;34208;-77
2022/04/26 04:58:22;;;;;;;4.43;3.75;;;7.90;37.50;;;;;;4932368;28;34076;-77
2022/04/26 05:00:48;;;;;;;4.32;3.53;;;8.00;37.50;;;;;;4951617;28;34000;-77
2022/04/26 05:03:14;;;;;;;4.45;3.53;;;8.00;37.40;;;;;;4950932;28;36529;-77
2022/04/26 05:05:40;;;;;;;5.10;3.78;;;8.00;37.40;;;;;;4951131;28;34224;-76
2022/04/26 05:08:10;;;;;;;4.65;3.78;;;8.00;37.50;;;;;;4950811;28;34202;-76
2022/04/26 05:10:36;;;;;;;4.60;3.50;;;8.10;37.60;;;;;;4984359;28;34270;-77
2022/04/26 05:13:04;;;;;;;5.00;3.97;;;8.10;37.50;;;;;;4967170;28;36299;-77
2022/04/26 05:15:30;;;;;;;4.60;3.60;;;8.10;37.50;;;;;;4966734;28;34179;-77
2022/04/26 05:17:56;;;;;;;3.90;3.33;;;8.20;37.50;;;;;;4983263;28;34162;-77
2022/04/26 05:20:22;;;;;;;4.38;3.28;;;8.20;37.40;;;;;;4966775;28;34518;-77
2022/04/26 05:25:34;;;;;;;4.10;3.67;;;8.30;37.50;;;;;;4983442;28;34190;-77
2022/04/26 05:28:01;;;;;;;6.55;3.78;;;8.30;37.80;;;;;;4967275;28;34320;-78
2022/04/26 05:30:28;;;;;;;4.65;4.07;;;8.40;37.70;;;;;;4985394;28;34008;-78
2022/04/26 05:32:54;;;;;;;10.75;4.50;;;8.40;37.80;;;;;;4967033;28;35822;-77
2022/04/26 05:35:22;;;;;;;5.65;4.32;;;8.50;37.80;;;;;;4967126;28;34063;-77
2022/04/26 05:37:49;;;;;;;8.05;4.43;;;8.60;37.80;;;;;;4984403;28;34219;-77
2022/04/26 05:40:15;;;;;;;5.95;4.65;;;8.80;37.80;;;;;;4967002;28;34090;-78
2022/04/26 05:42:41;;;;;;;9.55;5.55;;;8.90;37.60;;;;;;4983127;28;35791;-78
2022/04/26 05:45:07;;;;;;;7.80;5.30;;;9.10;37.50;;;;;;4983759;28;34471;-78
2022/04/26 05:47:33;;;;;;;8.02;6.05;;;9.20;37.40;;;;;;4948120;28;34228;-77
2022/04/26 05:49:59;;;;;;;10.38;6.28;;;9.40;37.00;;;;;;4947503;28;34174;-77
2022/04/26 05:52:26;;;;;;;7.22;5.38;;;9.50;36.90;;;;;;4931432;28;35585;-77
2022/04/26 05:54:52;;;;;;;9.18;5.10;;;9.60;36.90;;;;;;4958214;28;34243;-78
2022/04/26 05:57:18;;;;;;;8.02;5.70;;;9.60;37.60;;;;;;4956747;28;34261;-78
2022/04/26 05:59:44;;;;;;;8.70;5.97;;;9.60;37.00;;;;;;4967358;28;34100;-78
2022/04/26 06:02:11;;;;;;;8.43;6.18;;;9.60;37.00;;;;;;4983594;28;35299;-78
2022/04/26 06:04:38;;;;;;;19.27;11.10;;;9.60;37.20;;;;;;4956254;28;34195;-78
2022/04/26 06:07:04;;;;;;;10.13;6.35;;;9.60;37.40;;;;;;4984617;28;34328;-78
2022/04/26 06:09:31;;;;;;;16.77;10.93;;;9.60;37.50;;;;;;4967654;28;34070;-78
2022/04/26 06:11:58;;;;;;;23.13;12.13;;;9.70;37.70;;;;;;4968130;28;36541;-78
2022/04/26 06:14:24;;;;;;;27.48;14.88;;;10.00;37.70;;;;;;4986979;28;34079;-78
2022/04/26 06:16:54;;;;;;;33.40;15.00;;;10.20;37.20;;;;;;4955970;28;34242;-78
2022/04/26 06:19:20;;;;;;;28.88;15.32;;;10.50;37.10;;;;;;4971727;28;33961;-79
2022/04/26 06:21:46;;;;;;;29.52;15.32;;;10.80;36.20;;;;;;4971390;28;35515;-80
2022/04/26 06:24:12;;;;;;;27.30;15.55;;;11.40;35.40;;;;;;4972025;28;34171;-79
2022/04/26 06:26:38;;;;;;;28.17;15.55;;;12.00;34.20;;;;;;4987501;28;34117;-80
2022/04/26 06:29:04;;;;;;;28.65;15.93;;;12.70;33.00;;;;;;4972602;28;34106;-79
2022/04/26 06:31:30;;;;;;;25.63;15.75;;;13.30;31.50;;;;;;4972931;28;35515;-79
2022/04/26 06:33:56;;;;;;;28.00;16.30;;;13.90;30.20;;;;;;4988950;28;33815;-79
2022/04/26 06:36:22;;;;;;;22.35;14.25;;;14.30;28.60;;;;;;4989556;28;33973;-80
2022/04/26 06:38:48;;;;;;;26.13;15.38;;;14.70;27.70;;;;;;4972847;28;34091;-79
2022/04/26 06:41:15;;;;;;;23.50;14.25;;;15.10;27.00;;;;;;4988787;28;36225;-79
2022/04/26 06:43:41;;;;;;;24.42;15.27;;;15.40;25.80;;;;;;4972853;28;34096;-79
2022/04/26 06:46:07;;;;;;;24.85;14.60;;;15.60;25.20;;;;;;4970004;28;34274;-80
2022/04/26 06:48:33;;;;;;;21.13;13.88;;;15.80;24.90;;;;;;4990640;28;34049;-81
2022/04/26 06:50:59;;;;;;;22.50;14.10;;;16.00;24.70;;;;;;4960847;28;35981;-79
2022/04/26 06:53:25;;;;;;;22.85;14.55;;;16.20;24.30;;;;;;4968482;28;34550;-80
2022/04/26 06:55:51;;;;;;;21.75;13.48;;;16.20;23.30;;;;;;4970056;28;34246;-80
2022/04/26 06:58:17;;;;;;;23.38;14.85;;;16.00;23.60;;;;;;4951329;28;34199;-81
2022/04/26 07:00:43;;;;;;;24.55;14.45;;;15.80;23.70;;;;;;4966231;28;36064;-80
2022/04/26 07:03:09;;;;;;;19.90;13.13;;;15.70;24.00;;;;;;4972988;28;34082;-81
2022/04/26 07:05:35;;;;;;;24.42;14.32;;;15.70;24.00;;;;;;4972820;28;34100;-80
2022/04/26 07:08:01;;;;;;;21.40;13.27;;;15.70;24.30;;;;;;4989003;28;34161;-80
2022/04/26 07:10:28;;;;;;;24.38;14.13;;;15.60;25.10;;;;;;4988197;28;36078;-80
2022/04/26 07:12:55;;;;;;;23.20;14.23;;;15.50;24.80;;;;;;4972510;28;34104;-80
2022/04/26 07:15:21;;;;;;;26.33;14.45;;;15.40;25.10;;;;;;4971814;28;34485;-80
2022/04/26 07:17:47;;;;;;;22.77;13.50;;;15.30;25.10;;;;;;4971656;28;34611;-80
2022/04/26 07:20:13;;;;;;;23.40;14.18;;;14.90;25.50;;;;;;4972398;28;36506;-79
2022/04/26 07:22:39;;;;;;;24.40;14.85;;;14.70;26.90;;;;;;4971605;28;33638;-79
2022/04/26 07:25:06;;;;;;;21.30;13.38;;;14.50;27.00;;;;;;4987512;28;34255;-79
2022/04/26 07:27:32;;;;;;;21.55;12.98;;;14.30;26.90;;;;;;4969795;28;34223;-79
2022/04/26 07:29:59;;;;;;;22.02;13.60;;;14.20;27.30;;;;;;4986247;28;35544;-79
2022/04/26 07:35:09;;;;;;;22.58;14.07;;;13.90;27.90;;;;;;4986398;28;34273;-79
2022/04/26 07:37:35;;;;;;;21.90;13.23;;;13.70;27.90;;;;;;4969467;28;34472;-78
2022/04/26 07:40:01;;;;;;;23.42;13.50;;;13.60;28.20;;;;;;4985278;28;35223;-78
2022/04/26 07:42:27;;;;;;;22.85;13.73;;;13.50;28.60;;;;;;4964061;28;34148;-79
2022/04/26 07:44:53;;;;;;;29.25;16.02;;;13.50;28.90;;;;;;4949218;28;35140;-78
2022/04/26 07:47:22;;;;;;;22.15;13.68;;;13.50;28.90;;;;;;4935370;28;34076;-78
2022/04/26 07:49:48;;;;;;;22.30;14.10;;;13.60;29.20;;;;;;4974275;28;35895;-78
2022/04/26 07:52:15;;;;;;;22.83;14.15;;;13.70;29.30;;;;;;4965375;28;34409;-78
2022/04/26 07:54:42;;;;;;;23.33;14.80;;;13.70;29.10;;;;;;4982778;28;34096;-78
2022/04/26 07:57:08;;;;;;;24.55;14.48;;;13.80;28.90;;;;;;4984471;28;34117;-78
2022/04/26 07:59:34;;;;;;;24.27;14.38;;;14.10;28.70;;;;;;4985376;28;36401;-78
2022/04/26 08:02:00;;;;;;;23.10;14.55;;;14.50;28.10;;;;;;4969773;28;34426;-80
2022/04/26 08:04:26;;;;;;;26.27;14.63;;;14.90;28.00;;;;;;4962496;28;34258;-78
2022/04/26 08:06:51;;;;;;;25.10;14.55;;;15.10;27.60;;;;;;4949729;28;34207;-79
2022/04/26 08:09:17;;;;;;;23.50;14.23;;;15.20;27.10;;;;;;4962614;28;35518;-78
2022/04/26 08:11:43;;;;;;;22.17;13.55;;;15.20;27.10;;;;;;4938247;28;34318;-80
2022/04/26 08:14:09;;;;;;;22.05;13.52;;;15.00;27.00;;;;;;4948584;28;34456;-80
2022/04/26 08:16:35;;;;;;;18.77;11.35;;;15.00;27.50;;;;;;4967132;28;34135;-76
2022/04/26 08:19:01;;;;;;;16.08;11.07;;;15.10;27.30;;;;;;4958872;28;35553;-77
2022/04/26 08:21:27;;;;;;;17.25;11.65;;;15.10;27.20;;;;;;4976074;28;34148;-77
2022/04/26 08:29:15;;;;;;;16.75;10.00;;;15.60;26.10;;;;;;4963326;28;34080;-79
2022/04/26 08:31:42;;;;;;;16.80;11.05;;;15.90;25.60;;;;;;4961341;28;34406;-76
2022/04/26 08:34:08;;;;;;;15.65;10.15;;;16.10;25.20;;;;;;4948789;28;34326;-78
2022/04/26 08:36:34;;;;;;;14.35;10.23;;;16.40;24.50;;;;;;4985251;28;34226;-78
2022/04/26 08:39:00;;;;;;;17.30;10.13;;;16.70;24.30;;;;;;4953373;28;35533;-78
2022/04/26 08:41:26;;;;;;;16.65;10.25;;;17.00;23.90;;;;;;4948233;28;34398;-77
2022/04/26 08:43:52;;;;;;;18.23;10.77;;;17.00;23.20;;;;;;4950227;28;34418;-79
2022/04/26 08:46:19;;;;;;;15.43;9.02;;;17.10;23.40;;;;;;4949968;28;34126;-77
2022/04/26 08:51:28;;;;;;;14.60;9.35;;;17.40;22.80;;;;;;4979962;28;34254;-79
2022/04/26 08:53:54;;;;;;;12.23;8.65;;;17.40;22.80;;;;;;4937891;28;34320;-78
2022/04/26 08:56:20;;;;;;;14.02;9.20;;;17.40;22.60;;;;;;4983094;28;34075;-77
2022/04/26 08:58:47;;;;;;;13.07;8.70;;;17.30;22.30;;;;;;4969169;28;35853;-77
2022/04/26 09:01:18;;;;;;;14.77;8.57;;;17.20;22.00;;;;;;4983640;28;33764;-75
2022/04/26 09:03:55;;;;;;;15.20;8.35;;;17.10;21.50;;;;;;4947640;28;34287;-77
2022/04/26 09:06:34;;;;;;;12.57;8.40;;;17.10;19.80;;;;;;4947768;28;34229;-77
2022/04/26 09:09:13;;;;;;;10.38;7.38;;;17.20;21.70;;;;;;4947700;28;35526;-78
2022/04/26 09:11:40;;;;;;;10.68;7.07;;;17.40;18.10;;;;;;4950114;28;34159;-77
2022/04/26 09:14:10;;;;;;;10.27;6.70;;;17.40;20.60;;;;;;4968036;28;34190;-77
2022/04/26 09:16:36;;;;;;;11.48;7.53;;;17.40;20.40;;;;;;4985954;28;34106;-77
2022/04/26 09:19:06;;;;;;;11.77;8.38;;;17.20;20.60;;;;;;4967886;28;36033;-76
2022/04/26 09:21:34;;;;;;;13.23;8.00;;;16.80;20.50;;;;;;4985510;28;34130;-78
2022/04/26 09:24:04;;;;;;;13.00;7.97;;;16.50;21.30;;;;;;4985543;28;34233;-74
2022/04/26 09:26:36;;;;;;;15.40;8.35;;;16.20;20.60;;;;;;4983919;28;34563;-74
2022/04/26 09:29:03;;;;;;;14.55;8.00;;;15.90;20.80;;;;;;4934606;28;36225;-75
2022/04/26 09:31:32;;;;;;;16.55;8.55;;;15.60;22.10;;;;;;4941244;28;34306;-77
2022/04/26 09:34:23;;;;;;;14.32;8.90;;;15.50;22.30;;;;;;4982211;28;34179;-77
2022/04/26 09:36:50;;;;;;;13.65;9.40;;;15.50;22.40;;;;;;4979033;28;34273;-78
2022/04/26 09:39:19;;;;;;;12.07;7.93;;;15.50;22.80;;;;;;4942025;28;34382;-77
2022/04/26 09:41:52;;;;;;;12.48;8.57;;;15.40;22.20;;;;;;4962499;28;34362;-77
2022/04/26 09:44:30;;;;;;;14.30;8.65;;;15.30;22.60;;;;;;4931581;28;34109;-78
2022/04/26 09:46:57;;;;;;;14.65;9.15;;;15.00;21.60;;;;;;4956150;28;34410;-75
2022/04/26 09:49:24;;;;;;;11.95;8.35;;;14.90;23.20;;;;;;4953682;28;35560;-77
2022/04/26 09:51:55;;;;;;;13.50;7.78;;;14.90;23.40;;;;;;4950707;28;34387;-77
2022/04/26 09:54:22;;;;;;;12.70;7.15;;;14.90;23.00;;;;;;4961619;28;34220;-77
2022/04/26 09:56:49;;;;;;;14.57;8.07;;;14.90;23.30;;;;;;4970163;28;34672;-78
2022/04/26 09:59:29;;;;;;;10.48;7.35;;;14.90;23.30;;;;;;4988205;28;36821;-78
2022/04/26 10:01:58;;;;;;;10.77;6.70;;;14.90;23.40;;;;;;4974807;28;35282;-75
2022/04/26 10:04:26;;;;;;;9.15;6.75;;;14.80;23.10;;;;;;4969286;28;34335;-80
2022/04/26 10:07:00;;;;;;;11.02;7.63;;;14.80;23.40;;;;;;4935472;28;34092;-76
2022/04/26 10:09:27;;;;;;;9.82;7.32;;;14.80;23.50;;;;;;4952921;28;34345;-78
2022/04/26 10:11:57;;;;;;;11.77;7.47;;;14.80;23.60;;;;;;4970358;28;34715;-78
2022/04/26 10:14:24;;;;;;;10.63;7.65;;;14.80;23.50;;;;;;4969449;28;34527;-77
2022/04/26 10:16:50;;;;;;;10.15;7.15;;;14.80;23.60;;;;;;4988416;28;34110;-77
2022/04/26 10:19:16;;;;;;;11.50;7.18;;;14.60;23.50;;;;;;4966564;28;35539;-77
2022/04/26 10:21:46;;;;;;;10.45;6.55;;;14.50;23.60;;;;;;4935054;28;34126;-75
2022/04/26 10:24:17;;;;;;;9.68;6.80;;;14.30;23.80;;;;;;4962266;28;34482;-77
2022/04/26 10:26:43;;;;;;;8.75;6.72;;;14.10;24.00;;;;;;4950767;28;34072;-77
2022/04/26 10:29:14;;;;;;;13.00;8.18;;;14.00;24.10;;;;;;4951488;28;36093;-77
2022/04/26 10:31:46;;;;;;;10.77;7.75;;;13.90;24.50;;;;;;4963085;28;34474;-74
2022/04/26 10:34:17;;;;;;;10.05;7.40;;;13.80;24.50;;;;;;4942520;28;34540;-78
2022/04/26 10:36:44;;;;;;;11.38;7.68;;;13.80;25.00;;;;;;4940472;28;34453;-77
2022/04/26 10:39:31;;;;;;;10.35;7.20;;;13.70;25.00;;;;;;4985811;28;35060;-78
2022/04/26 10:41:59;;;;;;;9.45;7.20;;;13.70;26.20;;;;;;4953130;28;34179;-76
2022/04/26 10:44:28;;;;;;;12.35;7.40;;;13.70;25.30;;;;;;4976319;28;34506;-77
2022/04/26 10:47:22;;;;;;;10.35;7.20;;;13.70;25.40;;;;;;4966349;28;34359;-76
2022/04/26 10:49:53;;;;;;;12.38;7.60;;;13.60;26.20;;;;;;4983117;28;35688;-78
2022/04/26 10:52:37;;;;;;;9.40;6.90;;;13.60;25.40;;;;;;4966181;28;34105;-77
2022/04/26 10:55:07;;;;;;;9.27;7.03;;;13.60;25.70;;;;;;4968865;28;34331;-77
2022/04/26 10:57:39;;;;;;;9.32;6.47;;;13.50;25.30;;;;;;4960926;28;34370;-76
2022/04/26 11:00:11;;;;;;;7.90;5.97;;;13.50;25.30;;;;;;4937742;28;36364;-79
2022/04/26 11:02:40;;;;;;;8.98;6.45;;;13.40;25.80;;;;;;4946019;28;34132;-76
2022/04/26 11:05:10;;;;;;;9.40;6.57;;;13.30;25.60;;;;;;4966848;28;34485;-77
2022/04/26 11:07:39;;;;;;;9.20;6.00;;;13.20;25.60;;;;;;4987076;28;34114;-76
2022/04/26 11:10:07;;;;;;;8.57;6.10;;;13.20;26.00;;;;;;4958179;28;34743;-78
2022/04/26 11:12:34;;;;;;;9.40;5.55;;;13.20;25.90;;;;;;4972472;28;34123;-78
2022/04/26 11:15:05;;;;;;;7.25;5.13;;;13.20;26.00;;;;;;4969178;28;34068;-77
2022/04/26 11:17:31;;;;;;;7.80;5.55;;;13.20;25.90;;;;;;4985353;28;34225;-76
2022/04/26 11:19:58;;;;;;;8.70;5.63;;;13.30;25.90;;;;;;4978950;28;35351;-78
2022/04/26 11:22:26;;;;;;;9.00;5.80;;;13.40;25.60;;;;;;4969999;28;34466;-77
2022/04/26 11:30:36;;;;;;;10.60;6.25;;;13.70;25.40;;;;;;4984905;28;34687;-76
2022/04/26 11:33:07;;;;;;;9.38;6.07;;;13.70;25.40;;;;;;4984490;28;34126;-78
2022/04/26 11:35:34;;;;;;;12.93;6.63;;;13.70;25.40;;;;;;4960488;28;34354;-78
2022/04/26 11:38:12;;;;;;;11.10;7.18;;;13.70;25.10;;;;;;4957096;28;34427;-77
2022/04/26 11:40:42;;;;;;;12.90;7.93;;;13.70;25.60;;;;;;4938596;28;36120;-78
2022/04/26 11:43:12;;;;;;;10.05;6.50;;;13.70;25.40;;;;;;4966513;28;34228;-78
2022/04/26 11:45:39;;;;;;;13.73;7.07;;;13.80;25.90;;;;;;4958238;28;34055;-78
2022/04/26 11:48:11;;;;;;;12.18;7.43;;;14.00;25.50;;;;;;4969788;28;34023;-77
2022/04/26 11:50:37;;;;;;;17.67;8.80;;;14.10;25.40;;;;;;4969203;28;35605;-78
2022/04/26 11:53:06;;;;;;;16.17;8.45;;;14.20;24.90;;;;;;4966009;28;34302;-78
2022/04/26 11:55:34;;;;;;;15.50;8.15;;;14.50;25.10;;;;;;4971995;28;34297;-79
2022/04/26 11:58:18;;;;;;;12.50;7.88;;;14.60;24.60;;;;;;4937612;28;34486;-78
2022/04/26 12:01:11;;;;;;;14.60;8.18;;;14.80;24.40;;;;;;4970704;28;36366;-78
2022/04/26 12:03:46;;;;;;;13.27;8.20;;;14.90;23.80;;;;;;4969506;28;34192;-78
2022/04/26 12:06:15;;;;;;;17.50;7.93;;;15.00;23.80;;;;;;4965806;28;34298;-79
2022/04/26 12:08:44;;;;;;;14.05;8.43;;;15.00;23.80;;;;;;4965222;28;34238;-78
2022/04/26 12:11:15;;;;;;;12.85;7.97;;;15.00;23.80;;;;;;4949148;28;35731;-77
2022/04/26 12:13:41;;;;;;;15.63;8.55;;;14.90;23.60;;;;;;4983020;28;34182;-79
2022/04/26 12:16:19;;;;;;;14.57;8.32;;;14.80;23.80;;;;;;4968165;28;34185;-79
2022/04/26 12:19:01;;;;;;;15.20;7.85;;;14.70;23.50;;;;;;4969110;28;34092;-79
2022/04/26 12:21:42;;;;;;;10.77;7.65;;;14.60;23.60;;;;;;4948654;28;35570;-79
2022/04/26 12:24:26;;;;;;;13.07;7.70;;;14.40;24.20;;;;;;4933487;28;34094;-79
2022/04/26 12:26:56;;;;;;;18.73;8.40;;;14.30;24.80;;;;;;4966790;28;34186;-77
2022/04/26 12:29:26;;;;;;;16.70;9.07;;;14.20;24.80;;;;;;4926208;28;34114;-78
2022/04/26 12:31:52;;;;;;;15.10;9.23;;;13.90;24.40;;;;;;4948617;28;35461;-75
2022/04/26 12:34:23;;;;;;;15.88;9.05;;;13.70;24.80;;;;;;4959911;28;34221;-76
2022/04/26 12:36:57;;;;;;;16.42;9.93;;;13.60;25.30;;;;;;4980522;28;34245;-79
2022/04/26 12:39:26;;;;;;;15.73;9.13;;;13.50;25.70;;;;;;4952187;28;34202;-77
2022/04/26 12:41:55;;;;;;;15.95;9.18;;;13.50;25.60;;;;;;4965116;28;35690;-78
2022/04/26 12:44:22;;;;;;;16.02;9.55;;;13.50;25.60;;;;;;4966119;28;34132;-78
2022/04/26 12:52:46;;;;;;;17.00;9.25;;;13.80;26.80;;;;;;4965215;28;34363;-79
2022/04/26 12:55:24;;;;;;;15.13;8.93;;;13.80;25.20;;;;;;4964977;28;34124;-79
2022/04/26 12:57:52;;;;;;;17.20;9.48;;;13.80;25.40;;;;;;4965761;28;34245;-78
2022/04/26 13:00:19;;;;;;;16.35;9.88;;;13.70;25.30;;;;;;4965927;28;34640;-78
2022/04/26 13:02:47;;;;;;;15.70;9.25;;;13.60;25.40;;;;;;4965242;28;34089;-79
2022/04/26 13:05:13;;;;;;;15.32;8.93;;;13.50;25.60;;;;;;4965935;28;34401;-79
2022/04/26 13:07:39;;;;;;;18.55;9.70;;;13.40;25.60;;;;;;4965398;28;34267;-78
2022/04/26 13:10:05;;;;;;;14.18;8.23;;;13.30;25.80;;;;;;4949004;28;34106;-79
2022/04/26 13:12:31;;;;;;;16.45;8.98;;;13.20;25.90;;;;;;4941638;28;34340;-77
2022/04/26 13:14:59;;;;;;;13.85;8.63;;;13.10;26.10;;;;;;4964282;28;34225;-79
2022/04/26 13:17:26;;;;;;;13.25;8.45;;;13.00;26.30;;;;;;4949709;28;34143;-79
2022/04/26 13:19:52;;;;;;;16.13;9.75;;;13.00;26.30;;;;;;4949630;28;34194;-78
2022/04/26 13:22:19;;;;;;;14.48;9.50;;;12.90;26.50;;;;;;4948638;28;36049;-78
2022/04/26 13:24:44;;;;;;;14.40;9.07;;;12.90;26.60;;;;;;4966959;28;34268;-79
2022/04/26 13:27:11;;;;;;;15.68;9.43;;;12.90;26.70;;;;;;4967889;28;34410;-77
2022/04/26 13:29:37;;;;;;;13.80;8.50;;;12.90;26.70;;;;;;4986150;28;34116;-79
2022/04/26 13:32:04;;;;;;;14.98;9.02;;;12.80;26.70;;;;;;4969075;28;35827;-79
2022/04/26 13:34:31;;;;;;;14.02;7.97;;;12.80;26.90;;;;;;4969140;28;34115;-79
2022/04/26 13:36:57;;;;;;;13.40;9.00;;;12.80;26.90;;;;;;4953882;28;34083;-77
2022/04/26 13:39:23;;;;;;;13.90;8.27;;;12.80;26.90;;;;;;4951529;28;34131;-76
2022/04/26 13:41:50;;;;;;;15.35;8.10;;;12.80;27.10;;;;;;4981290;28;35931;-77
2022/04/26 13:44:20;;;;;;;13.73;8.15;;;12.80;26.90;;;;;;4983209;28;34222;-76
2022/04/26 13:46:48;;;;;;;14.85;9.70;;;12.80;27.00;;;;;;4982585;28;34233;-78
2022/04/26 13:49:15;;;;;;;11.60;7.93;;;13.00;27.10;;;;;;4985570;28;34142;-78
2022/04/26 13:51:41;;;;;;;15.45;8.95;;;13.10;26.90;;;;;;4986680;28;34947;-78
2022/04/26 13:54:08;;;;;;;12.52;8.30;;;13.30;26.80;;;;;;4968656;28;34527;-78
2022/04/26 13:56:34;;;;;;;12.38;8.65;;;13.40;26.30;;;;;;4971192;28;34408;-79
2022/04/26 13:59:00;;;;;;;14.07;8.40;;;13.60;26.20;;;;;;4953082;28;34427;-77
2022/04/26 14:01:26;;;;;;;13.77;7.63;;;13.60;26.00;;;;;;4952075;28;36119;-77
2022/04/26 14:03:51;;;;;;;10.90;8.10;;;13.60;26.00;;;;;;4968195;28;34379;-77
2022/04/26 14:06:21;;;;;;;15.85;8.20;;;13.60;26.10;;;;;;4968432;28;34217;-78
2022/04/26 14:08:49;;;;;;;12.10;7.97;;;13.60;26.20;;;;;;4985750;28;34234;-78
2022/04/26 14:11:16;;;;;;;14.10;7.25;;;13.60;26.40;;;;;;4985732;28;34476;-79
2022/04/26 14:21:49;;;;;;;12.85;7.70;;;13.60;26.50;;;;;;4983776;28;34105;-78
2022/04/26 14:24:15;;;;;;;14.18;8.20;;;13.60;26.50;;;;;;4967898;28;34162;-79
2022/04/26 14:26:42;;;;;;;12.25;7.80;;;13.60;26.60;;;;;;4967893;28;34194;-78
2022/04/26 14:29:08;;;;;;;11.07;8.20;;;13.60;26.50;;;;;;4966599;28;34566;-78
2022/04/26 14:31:36;;;;;;;12.80;8.00;;;13.80;26.40;;;;;;4966929;28;36652;-76
2022/04/26 14:34:03;;;;;;;11.50;7.80;;;13.80;26.40;;;;;;4968598;28;34128;-78
2022/04/26 14:36:29;;;;;;;11.82;7.90;;;13.90;26.20;;;;;;4971090;28;34223;-78
2022/04/26 14:38:55;;;;;;;11.65;8.02;;;14.00;26.20;;;;;;4970802;28;34431;-77
2022/04/26 14:41:21;;;;;;;12.13;7.90;;;14.10;26.10;;;;;;4969848;28;35919;-77
2022/04/26 14:43:46;;;;;;;13.82;7.75;;;14.20;26.00;;;;;;4970108;28;34294;-78
2022/04/26 14:46:12;;;;;;;12.90;8.18;;;14.30;25.80;;;;;;4986047;28;34094;-78
2022/04/26 14:48:39;;;;;;;12.45;8.70;;;14.30;25.80;;;;;;4969957;28;34590;-77
2022/04/26 14:51:05;;;;;;;12.75;8.35;;;14.40;25.80;;;;;;4970447;28;35865;-78
2022/04/26 14:53:31;;;;;;;16.63;9.23;;;14.30;25.70;;;;;;4987704;28;34219;-77
2022/04/26 14:55:59;;;;;;;14.73;8.75;;;14.30;25.70;;;;;;4970778;28;34236;-80
2022/04/26 14:58:25;;;;;;;12.48;7.88;;;14.40;25.50;;;;;;4970507;28;34146;-77
2022/04/26 15:00:52;;;;;;;14.20;8.80;;;14.60;25.40;;;;;;4987726;28;34442;-78
2022/04/26 15:03:18;;;;;;;11.82;8.63;;;14.50;25.20;;;;;;4970003;28;34394;-77
2022/04/26 15:05:44;;;;;;;14.45;8.77;;;14.50;25.10;;;;;;4969587;28;34303;-78
2022/04/26 15:10:51;;;;;;;14.07;8.85;;;14.70;24.90;;;;;;4983652;28;34426;-78
2022/04/26 15:18:40;;;;;;;16.33;9.52;;;15.70;23.90;;;;;;4972958;28;34155;-80
2022/04/26 15:21:08;;;;;;;15.02;9.25;;;15.90;23.40;;;;;;4965875;28;35814;-77
2022/04/26 15:23:35;;;;;;;11.13;8.10;;;16.10;23.00;;;;;;4950253;28;34288;-79
2022/04/26 15:26:06;;;;;;;12.27;8.65;;;16.20;22.60;;;;;;4987634;28;34129;-79
2022/04/26 15:28:34;;;;;;;15.70;8.85;;;16.10;22.30;;;;;;4971521;28;34512;-78
2022/04/26 15:31:01;;;;;;;15.18;9.23;;;16.20;22.10;;;;;;4988546;28;36634;-77
2022/04/26 15:33:27;;;;;;;12.77;8.95;;;16.30;22.20;;;;;;4969779;28;34529;-78
2022/04/26 15:35:54;;;;;;;13.48;9.05;;;16.50;22.00;;;;;;4968201;28;34600;-80
2022/04/26 15:38:21;;;;;;;13.15;9.07;;;16.60;21.70;;;;;;4987645;28;33985;-76
2022/04/26 15:40:47;;;;;;;11.70;7.97;;;16.70;21.40;;;;;;4969187;28;36610;-77
2022/04/26 15:43:15;;;;;;;13.07;8.65;;;16.80;21.90;;;;;;4970486;28;34073;-77
2022/04/26 15:45:42;;;;;;;12.65;8.18;;;16.90;21.20;;;;;;4966476;28;34225;-78
2022/04/26 15:48:08;;;;;;;12.48;8.57;;;16.90;20.90;;;;;;4952278;28;34278;-79
2022/04/26 15:50:34;;;;;;;13.35;8.25;;;16.90;21.00;;;;;;4966214;28;35561;-80
2022/04/26 15:53:00;;;;;;;13.52;8.93;;;17.00;20.80;;;;;;4985186;28;34246;-79
2022/04/26 15:55:26;;;;;;;12.88;8.70;;;17.20;20.50;;;;;;4958775;28;34373;-76
2022/04/26 15:57:54;;;;;;;13.10;9.13;;;17.40;20.50;;;;;;4950146;28;34179;-78
2022/04/26 16:00:20;;;;;;;13.32;8.80;;;17.50;20.00;;;;;;4972685;28;34992;-79
2022/04/26 16:02:48;;;;;;;15.23;8.60;;;17.60;19.70;;;;;;4967767;28;34314;-78
2022/04/26 16:05:14;;;;;;;12.35;8.43;;;17.60;19.10;;;;;;4966438;28;34308;-78
2022/04/26 16:07:40;;;;;;;13.02;9.05;;;17.50;19.50;;;;;;4967167;28;34141;-80
2022/04/26 16:20:51;;;;;;;11.68;8.57;;;17.00;19.40;;;;;;4951855;28;34187;-78
2022/04/26 16:23:17;;;;;;;13.50;8.80;;;17.00;19.60;;;;;;4969621;28;34260;-77
2022/04/26 16:25:43;;;;;;;16.50;9.48;;;17.00;19.50;;;;;;4967307;28;34285;-77
2022/04/26 16:28:09;;;;;;;14.65;9.18;;;16.90;19.40;;;;;;4984040;28;34139;-77
2022/04/26 16:30:36;;;;;;;13.90;9.50;;;16.80;19.40;;;;;;4985020;28;35105;-77
2022/04/26 16:33:04;;;;;;;12.88;8.82;;;16.80;19.50;;;;;;4983916;28;34049;-77
2022/04/26 16:35:31;;;;;;;11.82;8.73;;;16.60;19.40;;;;;;4967909;28;34286;-77
2022/04/26 16:37:58;;;;;;;14.90;8.93;;;16.50;19.60;;;;;;4985077;28;34356;-77
2022/04/26 16:40:24;;;;;;;11.23;8.48;;;16.30;19.70;;;;;;4984484;28;34232;-77
2022/04/26 16:42:50;;;;;;;12.40;8.88;;;16.20;19.90;;;;;;4977617;28;34394;-77
2022/04/26 16:45:17;;;;;;;13.57;8.93;;;16.10;20.00;;;;;;4953495;28;34181;-77
2022/04/26 16:47:43;;;;;;;12.55;8.55;;;16.00;20.10;;;;;;4971688;28;34011;-77
2022/04/26 16:50:09;;;;;;;13.77;9.10;;;15.90;20.20;;;;;;4970217;28;36032;-77
2022/04/26 16:52:36;;;;;;;12.05;8.68;;;15.70;20.50;;;;;;4983661;28;34376;-77
2022/04/26 16:55:03;;;;;;;12.98;8.75;;;15.70;20.50;;;;;;4984807;28;34136;-78
2022/04/26 16:57:29;;;;;;;14.63;10.20;;;15.50;20.80;;;;;;4966706;28;34132;-77
2022/04/26 16:59:57;;;;;;;13.18;9.63;;;15.50;21.00;;;;;;4958092;28;36128;-78
2022/04/26 17:02:25;;;;;;;11.82;9.43;;;15.40;21.10;;;;;;4948381;28;34040;-78
2022/04/26 17:04:51;;;;;;;13.80;9.60;;;15.30;21.00;;;;;;4958422;28;34200;-78
2022/04/26 17:07:17;;;;;;;14.15;9.50;;;15.30;21.10;;;;;;4948234;28;34327;-78
2022/04/26 17:09:43;;;;;;;16.85;9.85;;;15.30;21.10;;;;;;4947226;28;36003;-78
2022/04/26 17:12:11;;;;;;;14.60;10.57;;;15.20;21.10;;;;;;4947851;28;34523;-77